Weather reports worldwide

Advertisment
Puebla De D. Rodrigo, Spain (8271): temperature & dewpoint: 13.08.2019 00:00:00 - 19.08.2019 00:00:00 (CEST)Puebla De D. Rodrigo, Spain (8271): wind speed & gusts: 13.08.2019 00:00:00 - 19.08.2019 00:00:00 (CEST)Puebla De D. Rodrigo, Spain (8271): wind direction: 13.08.2019 00:00:00 - 19.08.2019 00:00:00 (CEST)Puebla De D. Rodrigo, Spain (8271): reduced air pressure: 13.08.2019 00:00:00 - 19.08.2019 00:00:00 (CEST)Puebla De D. Rodrigo, Spain (8271): precipitation: 13.08.2019 00:00:00 - 19.08.2019 00:00:00 (CEST)
Date & Time tt [°C] td [°C] ff [km/h] ff [kn] fx [km/h] fx [kn] dd ppp [hPa] rr [mm]
19.08.2019 00:00:00 - - - - - - - - -
18.08.2019 23:00:00 26,2 11,9 0 0 6 4 W 1007,3 0,0
18.08.2019 22:00:00 27,3 11,3 0 0 9 5 N 1006,4 0,0
18.08.2019 21:00:00 29,1 9,8 0 0 18 10 W 1005,1 0,0
18.08.2019 20:00:00 31,3 10,0 3 1 22 12 W 1004,8 -
18.08.2019 19:00:00 33,8 11,0 4 2 25 14 WSW 1004,7 0,0
18.08.2019 18:00:00 34,6 11,7 6 4 30 16 W 1004,8 0,0
18.08.2019 17:00:00 36,6 14,6 8 4 30 16 W 1004,3 0,0
18.08.2019 16:00:00 36,2 15,3 12 6 43 23 SW 1004,8 0,0
18.08.2019 15:00:00 35,7 14,3 12 6 33 18 W 1005,0 0,0
18.08.2019 14:00:00 35,3 14,5 9 5 31 17 WSW 1005,2 -
18.08.2019 13:00:00 33,9 13,9 9 5 25 14 SW 1006,0 0,0
18.08.2019 12:00:00 33,7 15,7 1 1 16 9 SSE 1006,1 0,0
18.08.2019 11:00:00 30,2 13,9 4 2 11 6 NE 1006,8 0,0
18.08.2019 10:00:00 26,5 11,4 0 0 1 1 E 1007,1 0,0
18.08.2019 09:00:00 23,1 9,8 0 0 0 0 E 1007,8 0,0
18.08.2019 08:00:00 20,5 8,8 0 0 0 0 N 1007,6 -
18.08.2019 07:00:00 18,7 6,8 0 0 0 0 N 1007,6 0,0
18.08.2019 06:00:00 20,1 7,1 0 0 0 0 N 1007,1 0,0
18.08.2019 05:00:00 21,6 7,4 0 0 0 0 N 1006,5 0,0
18.08.2019 04:00:00 22,1 7,1 0 0 1 1 N 1006,5 0,0
18.08.2019 03:00:00 24,4 8,0 0 0 0 0 N 1006,8 0,0
18.08.2019 02:00:00 24,8 8,3 0 0 9 5 N 1006,9 -
18.08.2019 01:00:00 27,9 9,2 8 4 13 7 SW 1006,3 0,0
18.08.2019 00:00:00 28,5 11,6 0 0 0 0 N 1006,0 0,0
17.08.2019 23:00:00 29,2 12,2 0 0 0 0 N 1005,4 0,0
17.08.2019 22:00:00 30,5 12,8 0 0 3 2 N 1005,0 0,0
17.08.2019 21:00:00 32,7 13,4 0 0 16 8 W 1004,1 0,0
17.08.2019 20:00:00 35,2 13,9 4 2 19 10 W 1003,1 -
17.08.2019 19:00:00 37,0 14,3 1 1 21 11 WNW 1003,3 0,0
17.08.2019 18:00:00 39,1 16,1 1 0 29 15 WSW 1003,3 0,0
17.08.2019 17:00:00 38,2 15,3 5 3 29 16 SW 1003,8 0,0
17.08.2019 16:00:00 38,9 16,6 7 4 26 14 WSW 1004,4 0,0
17.08.2019 15:00:00 36,9 16,0 13 7 36 19 SSW 1005,4 0,0
17.08.2019 14:00:00 36,5 16,1 16 8 28 15 SSW 1006,2 -
17.08.2019 13:00:00 35,6 16,4 8 5 23 12 S 1007,0 0,0
17.08.2019 12:00:00 35,0 16,8 5 3 14 7 SSE 1007,4 0,0
17.08.2019 11:00:00 31,6 16,0 0 0 3 1 E 1008,6 0,0
17.08.2019 10:00:00 28,3 14,5 0 0 0 0 N 1009,3 0,0
17.08.2019 09:00:00 23,4 11,8 0 0 0 0 N 1010,3 0,0
17.08.2019 08:00:00 20,9 11,0 0 0 0 0 N 1010,4 -
17.08.2019 07:00:00 20,4 10,5 0 0 0 0 N 1009,8 0,0
17.08.2019 06:00:00 21,1 10,3 0 0 0 0 N 1009,4 0,0
17.08.2019 05:00:00 22,1 9,9 0 0 0 0 N 1009,2 0,0
17.08.2019 04:00:00 23,0 10,4 0 0 0 0 N 1009,3 0,0
17.08.2019 03:00:00 24,6 10,5 0 0 1 0 N 1009,1 0,0
17.08.2019 02:00:00 25,3 10,3 0 0 0 0 N 1009,1 -
17.08.2019 01:00:00 26,8 11,3 0 0 0 0 N 1008,9 0,0
17.08.2019 00:00:00 27,1 11,1 0 0 1 1 N 1008,5 0,0
16.08.2019 23:00:00 28,6 11,7 0 0 10 5 SW 1008,1 0,0
16.08.2019 22:00:00 29,3 9,9 1 0 7 4 W 1007,3 0,0
16.08.2019 21:00:00 31,7 11,0 0 0 19 10 WSW 1006,7 0,0
16.08.2019 20:00:00 34,3 13,2 3 2 23 12 W 1006,0 -
16.08.2019 19:00:00 36,4 15,0 6 3 29 15 W 1005,6 0,0
16.08.2019 18:00:00 38,2 16,5 6 4 24 13 W 1005,1 0,0
16.08.2019 17:00:00 37,9 15,7 8 4 27 15 WSW 1005,8 0,0
16.08.2019 16:00:00 38,5 16,7 5 3 28 15 SW 1006,5 0,0
16.08.2019 15:00:00 37,5 16,5 4 2 33 18 SW 1007,1 0,0
16.08.2019 14:00:00 37,4 16,9 6 4 29 15 W 1007,5 -
16.08.2019 13:00:00 36,7 16,8 4 2 19 10 W 1008,0 0,0
16.08.2019 12:00:00 33,1 16,0 3 2 33 18 SSW 1009,1 0,0
16.08.2019 11:00:00 30,8 15,6 2 1 9 5 ENE 1009,4 0,0
16.08.2019 10:00:00 27,7 15,0 0 0 4 2 E 1010,2 0,0
16.08.2019 09:00:00 22,6 13,1 1 0 6 4 ENE 1011,1 0,0
16.08.2019 08:00:00 20,3 12,5 0 0 1 1 NNE 1010,8 -
16.08.2019 07:00:00 19,1 11,4 0 0 0 0 N 1010,7 0,0
16.08.2019 06:00:00 20,6 12,3 0 0 5 3 N 1010,2 0,0
16.08.2019 05:00:00 21,9 12,2 0 0 4 2 WNW 1009,8 0,0
16.08.2019 04:00:00 22,5 11,9 0 0 2 1 NW 1009,5 0,0
16.08.2019 03:00:00 23,4 11,4 0 0 0 0 N 1009,7 0,0
16.08.2019 02:00:00 24,8 12,1 0 0 6 4 SW 1009,4 -
16.08.2019 01:00:00 27,2 12,8 2 1 5 3 SW 1009,4 0,0
16.08.2019 00:00:00 28,6 13,3 1 1 10 5 WNW 1009,4 0,0
15.08.2019 23:00:00 29,1 13,4 6 3 11 6 W 1008,8 0,0
15.08.2019 22:00:00 30,7 13,5 1 1 13 7 WSW 1008,2 0,0
15.08.2019 21:00:00 32,4 13,6 4 2 21 11 WSW 1007,5 0,0
15.08.2019 20:00:00 34,2 13,1 7 4 18 10 SW 1006,7 -
15.08.2019 19:00:00 35,9 14,5 7 4 30 16 SW 1006,7 0,0
15.08.2019 18:00:00 36,2 13,7 4 2 22 12 W 1006,5 0,0
15.08.2019 17:00:00 38,2 14,7 3 1 25 14 WNW 1006,9 0,0
15.08.2019 16:00:00 38,1 14,6 1 0 23 12 ENE 1007,1 0,0
15.08.2019 15:00:00 37,3 13,9 9 5 26 14 WSW 1007,2 0,0
15.08.2019 14:00:00 36,9 14,2 6 4 17 9 ENE 1008,3 -
15.08.2019 13:00:00 35,4 13,0 3 2 13 7 W 1009,2 0,0
15.08.2019 12:00:00 34,6 13,9 3 1 10 6 ESE 1010,0 0,0
15.08.2019 11:00:00 29,3 12,2 1 1 6 3 E 1011,0 0,0
15.08.2019 10:00:00 24,4 10,3 1 1 9 5 E 1011,9 0,0
15.08.2019 09:00:00 21,7 9,6 0 0 3 2 E 1012,4 0,0
15.08.2019 08:00:00 18,4 7,8 0 0 0 0 ENE 1012,7 -
15.08.2019 07:00:00 16,8 6,5 0 0 0 0 N 1012,3 0,0
15.08.2019 06:00:00 17,5 6,4 0 0 0 0 N 1012,2 0,0
15.08.2019 05:00:00 17,7 6,2 0 0 0 0 N 1012,1 0,0
15.08.2019 04:00:00 19,3 6,4 0 0 0 0 N 1011,7 0,0
15.08.2019 03:00:00 20,8 7,0 0 0 1 1 N 1011,4 0,0
15.08.2019 02:00:00 22,3 7,3 0 0 0 0 N 1011,7 -
15.08.2019 01:00:00 23,5 7,1 0 0 4 2 SW 1011,6 0,0
15.08.2019 00:00:00 26,5 8,9 1 0 4 2 WSW 1010,6 0,0
14.08.2019 23:00:00 27,5 8,9 1 1 9 5 W 1010,6 0,0
14.08.2019 22:00:00 28,5 8,8 3 2 15 8 W 1010,0 0,0
14.08.2019 21:00:00 30,5 9,4 5 3 17 9 WSW 1008,9 0,0
14.08.2019 20:00:00 32,7 10,6 3 1 13 7 WSW 1008,4 -
14.08.2019 19:00:00 34,8 11,9 1 1 22 12 SW 1008,2 0,0
14.08.2019 18:00:00 35,1 11,4 4 2 26 14 WSW 1008,3 0,0
14.08.2019 17:00:00 36,6 12,7 1 1 22 12 SW 1008,2 0,0
14.08.2019 16:00:00 34,8 11,9 6 3 21 11 SW 1008,8 0,0
14.08.2019 15:00:00 35,0 12,6 4 2 21 12 SSW 1009,3 0,0
14.08.2019 14:00:00 34,1 12,4 4 2 18 10 SW 1010,4 -
14.08.2019 13:00:00 33,4 12,4 6 3 16 9 ENE 1010,9 0,0
14.08.2019 12:00:00 31,0 11,3 3 1 13 7 E 1011,6 0,0
14.08.2019 11:00:00 27,2 10,4 1 0 8 5 E 1012,2 0,0
14.08.2019 10:00:00 22,3 8,4 0 0 5 3 ENE 1013,4 0,0
14.08.2019 09:00:00 19,1 7,1 0 0 1 1 NE 1014,0 0,0
14.08.2019 08:00:00 15,7 5,6 0 0 0 0 N 1014,4 -
14.08.2019 07:00:00 14,4 3,8 0 0 0 0 N 1014,1 0,0
14.08.2019 06:00:00 14,8 3,9 0 0 0 0 N 1013,7 0,0
14.08.2019 05:00:00 16,7 4,1 0 0 0 0 N 1013,2 0,0
14.08.2019 04:00:00 16,8 4,1 0 0 0 0 N 1013,3 0,0
14.08.2019 03:00:00 18,8 4,5 0 0 0 0 N 1012,8 0,0
14.08.2019 02:00:00 20,6 5,5 0 0 0 0 N 1012,6 -
14.08.2019 01:00:00 22,1 5,9 0 0 0 0 N 1011,6 0,0
14.08.2019 00:00:00 23,8 6,1 0 0 9 5 WSW 1010,8 0,0
13.08.2019 23:00:00 24,8 6,1 5 3 8 5 WSW 1011,1 0,0
13.08.2019 22:00:00 26,7 6,1 1 0 12 6 WSW 1010,4 0,0
13.08.2019 21:00:00 28,5 6,5 1 1 10 5 WSW 1008,9 0,0
13.08.2019 20:00:00 30,7 8,4 1 1 16 8 WNW 1008,1 -
13.08.2019 19:00:00 32,8 10,2 2 1 15 8 WSW 1007,8 0,0
13.08.2019 18:00:00 33,4 10,6 3 1 17 9 N 1007,9 0,0
13.08.2019 17:00:00 34,3 11,4 1 1 18 10 N 1007,8 0,0
13.08.2019 16:00:00 34,2 12,0 4 2 18 10 N 1008,4 0,0
13.08.2019 15:00:00 31,9 11,7 8 4 18 10 NE 1009,4 0,0
13.08.2019 14:00:00 31,3 11,7 3 1 18 10 N 1009,9 -
13.08.2019 13:00:00 30,0 12,4 3 1 12 7 NE 1010,6 0,0
13.08.2019 12:00:00 28,7 13,4 0 0 5 3 N 1011,1 0,0
13.08.2019 11:00:00 27,0 12,2 0 0 2 1 E 1011,5 0,0
13.08.2019 10:00:00 22,3 7,7 0 0 1 0 E 1012,2 0,0
13.08.2019 09:00:00 20,6 6,8 0 0 0 0 N 1012,2 0,0
13.08.2019 08:00:00 16,1 3,6 0 0 0 0 N 1012,8 -
13.08.2019 07:00:00 15,1 2,3 0 0 0 0 N 1012,6 0,0
13.08.2019 06:00:00 16,9 3,2 0 0 0 0 N 1011,7 0,0
13.08.2019 05:00:00 17,2 2,7 0 0 0 0 N 1011,7 0,0
13.08.2019 04:00:00 21,1 5,0 0 0 4 2 N 1011,0 0,0
13.08.2019 03:00:00 20,8 4,3 0 0 9 5 N 1011,4 0,0
13.08.2019 02:00:00 22,7 5,1 0 0 3 1 W 1011,2 -
13.08.2019 01:00:00 23,2 5,1 1 0 12 7 NNW 1011,1 0,0
13.08.2019 00:00:00 24,3 5,6 8 5 18 10 ESE 1010,6 0,0

tt = temperature
td = dewpoint
ff = wind speed
fx = gusts
dd = wind direction
ppp = reduced air pressure
rr = precipitation

Next stations